createdAt,value
2022-08-05T00:00:17.032Z,29.60
2022-08-05T00:02:50.998Z,29.60
2022-08-05T00:06:03.030Z,29.50
2022-08-05T00:08:32.498Z,29.50
2022-08-05T00:11:00.986Z,29.40
2022-08-05T00:13:39.407Z,29.30
2022-08-05T00:16:12.247Z,29.30
2022-08-05T00:18:44.508Z,29.20
2022-08-05T00:21:14.497Z,29.20
2022-08-05T00:23:45.732Z,29.10
2022-08-05T00:26:22.360Z,29.10
2022-08-05T00:28:51.639Z,29.00
2022-08-05T00:31:54.148Z,29.00
2022-08-05T00:34:54.548Z,28.90
2022-08-05T00:37:11.495Z,28.80
2022-08-05T00:39:58.076Z,28.80
2022-08-05T00:42:34.581Z,28.80
2022-08-05T00:45:03.118Z,28.80
2022-08-05T00:47:53.276Z,28.80
2022-08-05T00:50:21.082Z,28.80
2022-08-05T00:52:49.313Z,28.70
2022-08-05T00:55:18.892Z,28.70
2022-08-05T00:57:55.525Z,28.60
2022-08-05T01:00:28.704Z,28.60
2022-08-05T01:02:57.362Z,28.60
2022-08-05T01:05:29.722Z,28.60
2022-08-05T01:08:40.258Z,28.50
2022-08-05T01:10:52.651Z,28.50
2022-08-05T01:13:58.823Z,28.50
2022-08-05T01:16:26.473Z,28.40
2022-08-05T01:19:01.916Z,28.30
2022-08-05T01:21:53.888Z,28.20
2022-08-05T01:24:36.667Z,28.20
2022-08-05T01:27:19.428Z,28.10
2022-08-05T01:29:57.333Z,28.10
2022-08-05T01:32:28.976Z,28.10
2022-08-05T01:35:00.449Z,28.10
2022-08-05T01:37:44.503Z,28.00
2022-08-05T01:40:14.031Z,28.00
2022-08-05T01:42:47.986Z,27.90
2022-08-05T01:45:19.373Z,27.90
2022-08-05T01:47:54.426Z,27.90
2022-08-05T01:50:28.723Z,27.80
2022-08-05T01:53:02.215Z,27.70
2022-08-05T01:55:36.041Z,27.60
2022-08-05T01:58:09.430Z,27.50
2022-08-05T02:00:47.981Z,27.40
2022-08-05T02:03:31.583Z,27.40
2022-08-05T02:06:03.415Z,27.30
2022-08-05T02:08:41.073Z,27.30
2022-08-05T02:11:33.283Z,27.20
2022-08-05T02:14:06.393Z,27.10
2022-08-05T02:16:44.078Z,27.10
2022-08-05T02:19:20.107Z,27.00
2022-08-05T02:21:55.299Z,27.00
2022-08-05T02:24:26.890Z,26.90
2022-08-05T02:27:00.305Z,26.90
2022-08-05T02:29:58.770Z,26.90
2022-08-05T02:32:31.620Z,26.80
2022-08-05T02:35:13.333Z,26.80
2022-08-05T02:37:47.831Z,26.70
2022-08-05T02:40:24.317Z,26.80
2022-08-05T02:42:55.379Z,26.70
2022-08-05T02:45:25.219Z,26.80
2022-08-05T02:48:06.688Z,26.80
2022-08-05T02:50:44.084Z,26.70
2022-08-05T02:53:19.063Z,26.70
2022-08-05T02:55:59.672Z,26.60
2022-08-05T02:58:30.494Z,26.50
2022-08-05T03:01:02.273Z,26.40
2022-08-05T03:04:02.150Z,26.30
2022-08-05T03:06:57.253Z,26.30
2022-08-05T03:09:15.735Z,26.40
2022-08-05T03:11:54.329Z,26.40
2022-08-05T03:14:26.780Z,26.40
2022-08-05T03:16:55.076Z,26.30
2022-08-05T03:19:33.776Z,26.20
2022-08-05T03:22:04.915Z,26.20
2022-08-05T03:24:47.013Z,26.10
2022-08-05T03:27:18.786Z,26.10
2022-08-05T03:30:08.777Z,26.00
2022-08-05T03:32:35.747Z,26.00
2022-08-05T03:35:06.962Z,26.00
2022-08-05T03:37:44.754Z,25.90
2022-08-05T03:40:15.392Z,25.90
2022-08-05T03:42:52.977Z,25.80
2022-08-05T03:45:23.228Z,25.80
2022-08-05T03:47:51.803Z,25.80
2022-08-05T03:50:28.490Z,25.80
2022-08-05T03:55:50.402Z,25.80
2022-08-05T03:56:33.158Z,25.90
2022-08-05T03:59:06.431Z,25.90
2022-08-05T04:01:38.128Z,26.00
2022-08-05T04:04:10.659Z,26.00
2022-08-05T04:06:42.799Z,26.10
2022-08-05T04:09:25.828Z,26.20
2022-08-05T04:11:56.657Z,26.20
2022-08-05T04:14:29.891Z,26.20
2022-08-05T04:17:00.819Z,26.30
2022-08-05T04:19:31.894Z,26.30
2022-08-05T04:22:09.258Z,26.20
2022-08-05T04:24:44.415Z,26.20
2022-08-05T04:27:42.026Z,26.20
2022-08-05T04:30:10.424Z,26.10
2022-08-05T04:32:39.076Z,26.10
2022-08-05T04:35:17.665Z,26.10
2022-08-05T04:38:02.768Z,26.20
2022-08-05T04:40:36.355Z,26.20
2022-08-05T04:43:04.996Z,26.20
2022-08-05T04:45:49.056Z,26.30
2022-08-05T04:48:27.329Z,26.40
2022-08-05T04:51:03.840Z,26.40
2022-08-05T04:53:40.817Z,26.50
2022-08-05T04:56:33.838Z,26.50
2022-08-05T04:58:58.746Z,26.60
2022-08-05T05:02:05.725Z,26.60
2022-08-05T05:04:15.092Z,26.60
2022-08-05T05:06:49.377Z,26.70
2022-08-05T05:09:26.489Z,26.70
2022-08-05T05:12:00.275Z,26.60
2022-08-05T05:14:32.020Z,26.60
2022-08-05T05:17:00.789Z,26.50
2022-08-05T05:19:37.264Z,26.50
2022-08-05T05:22:22.601Z,26.50
2022-08-05T05:24:56.987Z,26.50
2022-08-05T05:27:45.250Z,26.40
2022-08-05T05:30:29.592Z,26.50
2022-08-05T05:33:03.755Z,26.50
2022-08-05T05:35:45.182Z,26.50
2022-08-05T05:38:14.326Z,26.50
2022-08-05T05:40:49.762Z,26.60
2022-08-05T05:43:22.067Z,26.70
2022-08-05T05:45:56.623Z,26.70
2022-08-05T05:48:27.352Z,26.80
2022-08-05T05:50:55.992Z,26.80
2022-08-05T05:53:24.543Z,26.90
2022-08-05T05:56:00.861Z,26.90
2022-08-05T05:58:32.514Z,27.00
2022-08-05T06:01:02.567Z,27.10
2022-08-05T06:04:01.181Z,27.10
2022-08-05T06:06:31.142Z,27.20
2022-08-05T06:09:01.319Z,27.20
2022-08-05T06:11:33.649Z,27.20
2022-08-05T06:14:02.099Z,27.30
2022-08-05T06:16:32.883Z,27.30
2022-08-05T06:19:07.492Z,27.30
2022-08-05T06:21:38.709Z,27.30
2022-08-05T06:24:12.057Z,27.30
2022-08-05T06:26:51.546Z,27.30
2022-08-05T06:29:25.248Z,27.30
2022-08-05T06:32:21.419Z,27.30
2022-08-05T06:34:58.732Z,27.20
2022-08-05T06:37:55.603Z,27.10
2022-08-05T06:40:18.278Z,27.00
2022-08-05T06:42:52.279Z,27.00
2022-08-05T06:46:02.872Z,27.00
2022-08-05T06:48:44.194Z,27.10
2022-08-05T06:50:58.343Z,27.20
2022-08-05T06:53:29.278Z,27.40
2022-08-05T06:55:58.384Z,27.50
2022-08-05T06:58:36.434Z,27.60
2022-08-05T07:01:07.174Z,27.70
2022-08-05T07:03:36.071Z,27.80
2022-08-05T07:06:06.010Z,27.90
2022-08-05T07:08:47.874Z,28.00
2022-08-05T07:11:25.449Z,28.10
2022-08-05T07:14:15.420Z,28.10
2022-08-05T07:18:00.373Z,28.10
2022-08-05T07:20:31.612Z,28.20
2022-08-05T07:22:30.188Z,28.40
2022-08-05T07:25:22.445Z,28.50
2022-08-05T07:27:58.150Z,28.60
2022-08-05T07:30:33.608Z,28.80
2022-08-05T07:33:05.121Z,28.80
2022-08-05T07:36:02.940Z,28.90
2022-08-05T07:38:33.246Z,28.90
2022-08-05T07:42:06.798Z,28.90
2022-08-05T07:43:56.094Z,28.80
2022-08-05T07:46:27.526Z,28.80
2022-08-05T07:49:01.750Z,28.80
2022-08-05T07:51:41.157Z,28.80
2022-08-05T07:54:26.225Z,28.70
2022-08-05T07:57:01.556Z,28.70
2022-08-05T07:59:43.273Z,28.50
2022-08-05T08:02:17.917Z,28.40
2022-08-05T08:04:47.949Z,28.20
2022-08-05T08:07:18.279Z,28.10
2022-08-05T08:09:52.511Z,28.10
2022-08-05T08:12:39.454Z,27.90
2022-08-05T08:15:15.529Z,27.80
2022-08-05T08:17:50.628Z,27.70
2022-08-05T08:21:00.126Z,27.60
2022-08-05T08:23:59.839Z,27.60
2022-08-05T08:26:02.666Z,27.50
2022-08-05T08:28:36.530Z,27.50
2022-08-05T08:31:05.787Z,27.50
2022-08-05T08:33:38.314Z,27.60
2022-08-05T08:38:57.004Z,27.70
2022-08-05T08:41:52.310Z,27.70
2022-08-05T08:45:16.689Z,27.80
2022-08-05T08:47:21.821Z,27.90
2022-08-05T08:50:22.189Z,27.80
2022-08-05T08:52:53.664Z,27.80
2022-08-05T08:56:02.077Z,27.70
2022-08-05T08:58:12.913Z,27.60
2022-08-05T09:00:44.357Z,27.60
2022-08-05T09:03:16.004Z,27.60
2022-08-05T09:06:08.627Z,27.50
2022-08-05T09:08:37.222Z,27.50
2022-08-05T09:11:13.570Z,27.40
2022-08-05T09:14:00.640Z,27.40
2022-08-05T09:16:31.786Z,27.30
2022-08-05T09:18:59.988Z,27.20
2022-08-05T09:22:23.341Z,27.30
2022-08-05T09:24:18.205Z,27.40
2022-08-05T09:26:51.916Z,27.50
2022-08-05T09:29:20.463Z,27.60
2022-08-05T09:32:42.046Z,27.70
2022-08-05T09:34:58.559Z,27.70
2022-08-05T09:38:12.672Z,27.90
2022-08-05T09:40:32.349Z,28.10
2022-08-05T09:43:02.276Z,28.20
2022-08-05T09:46:06.672Z,28.30
2022-08-05T09:48:29.311Z,28.40
2022-08-05T09:51:00.248Z,28.50
2022-08-05T09:53:54.558Z,28.50
2022-08-05T09:56:27.326Z,28.60
2022-08-05T09:59:00.556Z,28.60
2022-08-05T10:01:32.539Z,28.50
2022-08-05T10:04:10.353Z,28.40
2022-08-05T10:06:40.662Z,28.20
2022-08-05T10:09:25.023Z,28.00
2022-08-05T10:11:56.298Z,27.90
2022-08-05T10:14:30.278Z,27.70
2022-08-05T10:17:37.296Z,27.50
2022-08-05T10:20:09.782Z,27.40
2022-08-05T10:22:43.086Z,27.30
2022-08-05T10:25:20.899Z,27.40
2022-08-05T10:28:09.554Z,27.50
2022-08-05T10:31:20.751Z,27.60
2022-08-05T10:33:29.141Z,27.80
2022-08-05T10:36:05.172Z,27.90
2022-08-05T10:38:36.498Z,28.00
2022-08-05T10:41:13.708Z,28.00
2022-08-05T10:43:50.415Z,28.10
2022-08-05T10:46:23.968Z,28.20
2022-08-05T10:49:01.504Z,28.20
2022-08-05T10:51:57.456Z,28.20
2022-08-05T10:54:56.039Z,28.20
2022-08-05T10:57:32.300Z,28.10
2022-08-05T11:00:19.287Z,28.10
2022-08-05T11:03:24.646Z,28.10
2022-08-05T11:06:06.155Z,28.10
2022-08-05T11:08:37.957Z,28.00
2022-08-05T11:11:42.072Z,28.00
2022-08-05T11:18:09.762Z,28.00
2022-08-05T11:20:39.040Z,28.10
2022-08-05T11:23:33.692Z,28.30
2022-08-05T11:26:28.014Z,28.40
2022-08-05T11:29:06.701Z,28.50
2022-08-05T11:31:58.661Z,28.60
2022-08-05T11:34:51.739Z,28.60
2022-08-05T11:38:26.694Z,28.60
2022-08-05T11:41:02.759Z,28.60
2022-08-05T11:44:04.925Z,28.40
2022-08-05T11:46:34.179Z,28.30
2022-08-05T11:49:06.355Z,28.30
2022-08-05T11:51:44.169Z,28.30
2022-08-05T11:54:32.695Z,28.30
2022-08-05T11:57:08.723Z,28.40
2022-08-05T11:59:51.670Z,28.60
2022-08-05T12:02:31.588Z,28.70
2022-08-05T12:05:07.471Z,28.90
2022-08-05T12:08:08.180Z,28.90
2022-08-05T12:10:43.373Z,28.90
2022-08-05T12:13:28.141Z,28.90
2022-08-05T12:16:15.550Z,28.90
2022-08-05T12:18:49.062Z,29.00
2022-08-05T12:21:24.696Z,29.00
2022-08-05T12:24:00.153Z,29.10
2022-08-05T12:26:33.964Z,29.20
2022-08-05T12:29:03.411Z,29.40
2022-08-05T12:31:41.515Z,29.40
2022-08-05T12:34:21.411Z,29.40
2022-08-05T12:36:54.471Z,29.50
2022-08-05T12:39:23.665Z,29.60
2022-08-05T12:42:02.502Z,29.70
2022-08-05T12:44:33.700Z,29.80
2022-08-05T12:47:03.644Z,30.00
2022-08-05T12:50:03.449Z,30.10
2022-08-05T12:52:38.754Z,30.20
2022-08-05T12:55:23.000Z,30.20
2022-08-05T12:58:48.202Z,30.30
2022-08-05T13:02:04.165Z,30.40
2022-08-05T13:03:39.071Z,30.50
2022-08-05T13:06:12.941Z,30.60
2022-08-05T13:08:42.912Z,30.60
2022-08-05T13:11:47.073Z,30.60
2022-08-05T13:14:20.331Z,30.70
2022-08-05T13:16:56.933Z,30.80
2022-08-05T13:19:27.095Z,31.00
2022-08-05T13:22:15.204Z,31.00
2022-08-05T13:25:00.968Z,31.00
2022-08-05T13:27:38.244Z,31.10
2022-08-05T13:30:34.511Z,31.20
2022-08-05T13:33:01.518Z,31.40
2022-08-05T13:35:43.101Z,31.30
2022-08-05T13:38:27.981Z,31.30
2022-08-05T13:41:01.101Z,31.30
2022-08-05T13:43:44.330Z,31.40
2022-08-05T13:46:35.845Z,31.50
2022-08-05T13:49:10.198Z,31.40
2022-08-05T13:51:41.017Z,31.50
2022-08-05T13:54:12.676Z,31.50
2022-08-05T13:56:45.137Z,31.50
2022-08-05T13:59:21.092Z,31.50
2022-08-05T14:01:56.456Z,31.50
2022-08-05T14:04:43.208Z,31.50
2022-08-05T14:07:26.439Z,31.40
2022-08-05T14:10:08.347Z,31.30
2022-08-05T14:12:38.256Z,31.30
2022-08-05T14:16:08.734Z,31.30
2022-08-05T14:17:59.403Z,31.30
2022-08-05T14:20:29.763Z,31.30
2022-08-05T14:22:58.301Z,31.40
2022-08-05T14:25:28.368Z,31.50
2022-08-05T14:27:59.655Z,31.60
2022-08-05T14:30:28.910Z,31.60
2022-08-05T14:32:58.816Z,31.60
2022-08-05T14:35:37.192Z,31.60
2022-08-05T14:38:31.987Z,31.60
2022-08-05T14:41:05.695Z,31.60
2022-08-05T14:43:58.953Z,31.50
2022-08-05T14:46:28.148Z,31.20
2022-08-05T14:49:07.386Z,31.00
2022-08-05T14:51:36.197Z,30.90
2022-08-05T14:54:26.498Z,30.80
2022-08-05T14:56:54.755Z,30.80
2022-08-05T14:59:24.927Z,30.70
2022-08-05T15:01:57.716Z,30.70
2022-08-05T15:04:27.457Z,30.60
2022-08-05T15:06:57.559Z,30.50
2022-08-05T15:09:51.305Z,30.40
2022-08-05T15:12:16.428Z,30.20
2022-08-05T15:14:49.691Z,30.00
2022-08-05T15:17:46.256Z,29.80
2022-08-05T15:20:15.526Z,29.70
2022-08-05T15:22:46.812Z,29.50
2022-08-05T15:25:23.250Z,29.30
2022-08-05T15:27:51.958Z,29.20
2022-08-05T15:30:22.441Z,29.10
2022-08-05T15:32:50.750Z,29.00
2022-08-05T15:35:21.949Z,28.80
2022-08-05T15:38:34.490Z,28.80
2022-08-05T15:41:02.956Z,28.70
2022-08-05T15:43:26.489Z,28.60
2022-08-05T15:45:59.894Z,28.50
2022-08-05T15:48:29.906Z,28.40
2022-08-05T15:51:01.021Z,28.30
2022-08-05T15:53:38.012Z,28.20
2022-08-05T15:56:18.904Z,28.10
2022-08-05T15:58:47.565Z,28.00
2022-08-05T16:01:18.838Z,28.00
2022-08-05T16:03:50.734Z,27.90
2022-08-05T16:06:20.889Z,27.80
2022-08-05T16:08:55.214Z,27.70
2022-08-05T16:11:40.244Z,27.70
2022-08-05T16:14:17.087Z,27.60
2022-08-05T16:16:47.621Z,27.60
2022-08-05T16:19:19.157Z,27.60
2022-08-05T16:22:05.400Z,27.50
2022-08-05T16:24:39.831Z,27.50
2022-08-05T16:27:09.166Z,27.50
2022-08-05T16:29:37.966Z,27.50
2022-08-05T16:32:23.317Z,27.50
2022-08-05T16:34:56.673Z,27.50
2022-08-05T16:38:10.439Z,27.60
2022-08-05T16:40:28.549Z,27.60
2022-08-05T16:42:57.940Z,27.70
2022-08-05T16:46:04.345Z,27.70
2022-08-05T16:48:25.471Z,27.70
2022-08-05T16:50:54.588Z,27.70
2022-08-05T16:54:03.350Z,27.50
2022-08-05T16:56:11.623Z,27.50
2022-08-05T16:58:40.815Z,27.40
2022-08-05T17:01:10.537Z,27.30
2022-08-05T17:03:40.388Z,27.20
2022-08-05T17:06:09.218Z,27.10
2022-08-05T17:08:53.094Z,27.00
2022-08-05T17:11:23.926Z,26.90
2022-08-05T17:13:54.794Z,26.70
2022-08-05T17:16:36.407Z,26.60
2022-08-05T17:19:07.642Z,26.50
2022-08-05T17:21:39.803Z,26.40
2022-08-05T17:24:28.343Z,26.40
2022-08-05T17:26:58.664Z,26.30
2022-08-05T17:29:33.410Z,26.20
2022-08-05T17:32:08.536Z,26.10
2022-08-05T17:34:41.860Z,25.90
2022-08-05T17:37:39.440Z,25.80
2022-08-05T17:39:59.984Z,25.60
2022-08-05T17:42:30.147Z,25.50
2022-08-05T17:45:18.027Z,25.30
2022-08-05T17:47:54.021Z,25.20
2022-08-05T17:50:29.025Z,25.00
2022-08-05T17:53:00.144Z,24.80
2022-08-05T17:55:38.045Z,24.60
2022-08-05T17:58:12.294Z,24.40
2022-08-05T18:00:44.700Z,24.20
2022-08-05T18:03:28.032Z,24.10
2022-08-05T18:06:12.006Z,24.00
2022-08-05T18:08:45.783Z,23.80
2022-08-05T18:11:24.313Z,23.80
2022-08-05T18:14:01.103Z,23.70
2022-08-05T18:16:32.345Z,23.70
2022-08-05T18:19:00.489Z,23.70
2022-08-05T18:22:09.244Z,23.70
2022-08-05T18:24:18.592Z,23.70
2022-08-05T18:26:49.177Z,23.70
2022-08-05T18:29:17.315Z,23.70
2022-08-05T18:32:00.973Z,23.70
2022-08-05T18:34:40.708Z,23.70
2022-08-05T18:37:12.304Z,23.70
2022-08-05T18:40:34.530Z,23.70
2022-08-05T18:42:29.374Z,23.70
2022-08-05T18:44:57.687Z,23.50
2022-08-05T18:47:28.257Z,23.50
2022-08-05T18:50:16.615Z,23.40
2022-08-05T18:52:51.335Z,23.40
2022-08-05T18:55:22.299Z,23.30
2022-08-05T18:57:53.201Z,23.30
2022-08-05T19:00:27.187Z,23.30
2022-08-05T19:02:57.843Z,23.20
2022-08-05T19:06:11.727Z,23.20
2022-08-05T19:08:30.121Z,23.20
2022-08-05T19:11:04.495Z,23.10
2022-08-05T19:13:36.062Z,23.10
2022-08-05T19:16:25.173Z,23.00
2022-08-05T19:18:56.621Z,23.00
2022-08-05T19:21:27.688Z,23.00
2022-08-05T19:24:06.053Z,23.00
2022-08-05T19:26:43.939Z,22.90
2022-08-05T19:29:23.820Z,22.80
2022-08-05T19:31:55.201Z,22.70
2022-08-05T19:34:25.951Z,22.60
2022-08-05T19:36:54.240Z,22.60
2022-08-05T19:39:25.482Z,22.50
2022-08-05T19:42:07.458Z,22.50
2022-08-05T19:44:44.679Z,22.50
2022-08-05T19:47:16.177Z,22.50
2022-08-05T19:49:45.115Z,22.40
2022-08-05T19:52:30.386Z,22.40
2022-08-05T19:56:11.335Z,22.40
2022-08-05T19:58:14.228Z,22.30
2022-08-05T20:00:38.253Z,22.30
2022-08-05T20:03:09.228Z,22.20
2022-08-05T20:05:43.396Z,22.20
2022-08-05T20:08:18.981Z,22.10
2022-08-05T20:10:49.765Z,22.10
2022-08-05T20:13:30.154Z,22.10
2022-08-05T20:16:07.279Z,22.10
2022-08-05T20:18:36.143Z,22.10
2022-08-05T20:21:06.546Z,22.00
2022-08-05T20:23:39.506Z,22.10
2022-08-05T20:26:21.688Z,22.10
2022-08-05T20:28:53.992Z,22.10
2022-08-05T20:31:37.001Z,22.10
2022-08-05T20:34:12.285Z,22.20
2022-08-05T20:36:43.401Z,22.10
2022-08-05T20:39:13.091Z,22.10
2022-08-05T20:41:45.257Z,22.10
2022-08-05T20:44:19.242Z,22.00
2022-08-05T20:46:59.004Z,22.00
2022-08-05T20:49:27.323Z,21.90
2022-08-05T20:51:57.488Z,22.00
2022-08-05T20:54:59.925Z,21.90
2022-08-05T20:57:24.734Z,22.00
2022-08-05T21:00:20.011Z,22.00
2022-08-05T21:02:57.853Z,21.90
2022-08-05T21:05:37.956Z,21.90
2022-08-05T21:08:14.364Z,21.90
2022-08-05T21:10:48.639Z,21.70
2022-08-05T21:13:26.354Z,21.70
2022-08-05T21:16:07.740Z,21.70
2022-08-05T21:18:35.958Z,21.60
2022-08-05T21:21:04.539Z,21.60
2022-08-05T21:23:35.950Z,21.70
2022-08-05T21:26:08.114Z,21.70
2022-08-05T21:28:47.760Z,21.70
2022-08-05T21:31:19.363Z,21.70
2022-08-05T21:33:49.635Z,21.70
2022-08-05T21:36:19.407Z,21.70
2022-08-05T21:38:58.511Z,21.60
2022-08-05T21:41:32.895Z,21.60
2022-08-05T21:44:04.909Z,21.50
2022-08-05T21:46:34.591Z,21.40
2022-08-05T21:49:07.078Z,21.40
2022-08-05T21:52:22.619Z,21.40
2022-08-05T21:54:30.668Z,21.40
2022-08-05T21:57:29.512Z,21.40
2022-08-05T22:00:03.230Z,21.30
2022-08-05T22:02:33.757Z,21.20
2022-08-05T22:05:01.885Z,21.20
2022-08-05T22:07:40.410Z,21.10
2022-08-05T22:10:27.151Z,21.10
2022-08-05T22:12:57.153Z,21.10
2022-08-05T22:16:00.637Z,21.10
2022-08-05T22:18:15.912Z,21.00
2022-08-05T22:20:47.809Z,21.00
2022-08-05T22:24:00.820Z,21.00
2022-08-05T22:26:49.913Z,20.90
2022-08-05T22:29:26.265Z,20.90
2022-08-05T22:31:59.325Z,20.90
2022-08-05T22:34:30.812Z,20.90
2022-08-05T22:36:59.737Z,20.90
2022-08-05T22:39:33.258Z,20.90
2022-08-05T22:42:11.191Z,20.80
2022-08-05T22:44:42.793Z,20.80
2022-08-05T22:47:29.517Z,20.80
2022-08-05T22:50:21.357Z,20.80
2022-08-05T22:52:48.397Z,20.80
2022-08-05T22:55:19.149Z,20.70
2022-08-05T22:57:49.394Z,20.70
2022-08-05T23:00:20.933Z,20.70
2022-08-05T23:02:52.081Z,20.60
2022-08-05T23:05:22.010Z,20.60
2022-08-05T23:07:51.370Z,20.50
2022-08-05T23:10:20.955Z,20.50
2022-08-05T23:12:54.661Z,20.40
2022-08-05T23:15:29.553Z,20.40
2022-08-05T23:18:11.500Z,20.40
2022-08-05T23:20:43.937Z,20.30
2022-08-05T23:23:12.095Z,20.30
2022-08-05T23:25:52.962Z,20.30
2022-08-05T23:28:26.912Z,20.20
2022-08-05T23:31:07.019Z,20.20
2022-08-05T23:34:03.995Z,20.20
2022-08-05T23:36:38.506Z,20.10
2022-08-05T23:39:07.192Z,20.10
2022-08-05T23:41:37.505Z,20.00
2022-08-05T23:44:09.236Z,20.00
2022-08-05T23:46:39.290Z,19.90
2022-08-05T23:49:17.003Z,19.90
2022-08-05T23:52:03.443Z,19.80
2022-08-05T23:54:38.412Z,19.70
2022-08-05T23:57:07.646Z,19.70
